createdAt,value
2018-10-12T00:00:43.070Z,12.20
2018-10-12T00:03:17.140Z,12.19
2018-10-12T00:05:51.150Z,12.14
2018-10-12T00:08:25.103Z,12.13
2018-10-12T00:10:59.225Z,12.12
2018-10-12T00:13:33.145Z,12.13
2018-10-12T00:16:07.498Z,12.14
2018-10-12T00:18:41.352Z,12.14
2018-10-12T00:21:15.409Z,12.09
2018-10-12T00:23:49.331Z,12.09
2018-10-12T00:26:23.334Z,12.10
2018-10-12T00:28:57.325Z,12.10
2018-10-12T00:31:31.350Z,12.08
2018-10-12T00:34:05.529Z,12.06
2018-10-12T00:36:39.561Z,12.07
2018-10-12T00:39:13.624Z,12.07
2018-10-12T00:41:47.740Z,12.05
2018-10-12T00:44:21.650Z,12.03
2018-10-12T00:46:55.626Z,11.98
2018-10-12T00:49:29.579Z,11.97
2018-10-12T00:52:03.528Z,11.98
2018-10-12T00:54:37.519Z,11.94
2018-10-12T00:57:11.476Z,11.95
2018-10-12T00:59:45.473Z,11.94
2018-10-12T01:02:19.482Z,11.92
2018-10-12T01:04:53.417Z,11.88
2018-10-12T01:07:27.402Z,11.88
2018-10-12T01:10:01.336Z,11.91
2018-10-12T01:12:36.548Z,11.94
2018-10-12T01:15:10.602Z,11.94
2018-10-12T01:17:44.599Z,11.96
2018-10-12T01:20:18.633Z,11.96
2018-10-12T01:22:52.693Z,11.94
2018-10-12T01:25:26.648Z,11.93
2018-10-12T01:28:00.692Z,11.89
2018-10-12T01:30:34.617Z,11.88
2018-10-12T01:33:08.698Z,11.87
2018-10-12T01:35:42.499Z,11.90
2018-10-12T01:38:16.373Z,11.89
2018-10-12T01:40:50.257Z,11.86
2018-10-12T01:43:24.110Z,11.82
2018-10-12T01:45:57.956Z,11.75
2018-10-12T01:48:31.829Z,11.78
2018-10-12T01:51:05.675Z,11.77
2018-10-12T01:53:39.575Z,11.83
2018-10-12T01:56:13.402Z,11.78
2018-10-12T01:58:47.267Z,11.78
2018-10-12T02:01:21.099Z,11.82
2018-10-12T02:03:55.065Z,11.82
2018-10-12T02:06:28.894Z,11.82
2018-10-12T02:09:02.784Z,11.82
2018-10-12T02:11:36.602Z,11.85
2018-10-12T02:14:10.459Z,11.85
2018-10-12T02:16:44.669Z,11.81
2018-10-12T02:19:18.630Z,11.79
2018-10-12T02:21:52.486Z,11.78
2018-10-12T02:24:26.424Z,11.77
2018-10-12T02:27:00.329Z,11.77
2018-10-12T02:29:34.234Z,11.76
2018-10-12T02:32:08.119Z,11.78
2018-10-12T02:34:41.995Z,11.79
2018-10-12T02:37:15.818Z,11.74
2018-10-12T02:39:49.653Z,11.69
2018-10-12T02:42:23.447Z,11.67
2018-10-12T02:44:57.307Z,11.71
2018-10-12T02:47:31.172Z,11.71
2018-10-12T02:50:05.249Z,11.69
2018-10-12T02:52:39.112Z,11.65
2018-10-12T02:55:12.892Z,11.65
2018-10-12T02:57:46.737Z,11.67
2018-10-12T03:00:20.699Z,11.70
2018-10-12T03:02:54.511Z,11.69
2018-10-12T03:05:28.372Z,11.69
2018-10-12T03:08:02.209Z,11.69
2018-10-12T03:10:36.068Z,11.67
2018-10-12T03:13:09.890Z,11.62
2018-10-12T03:15:44.002Z,11.59
2018-10-12T03:18:17.815Z,11.57
2018-10-12T03:20:51.745Z,11.52
2018-10-12T03:23:25.574Z,11.53
2018-10-12T03:25:59.847Z,11.53
2018-10-12T03:28:35.289Z,11.52
2018-10-12T03:31:09.511Z,11.51
2018-10-12T03:33:43.409Z,11.47
2018-10-12T03:36:17.522Z,11.44
2018-10-12T03:38:51.374Z,11.43
2018-10-12T03:41:25.219Z,11.39
2018-10-12T03:43:59.153Z,11.38
2018-10-12T03:46:33.047Z,11.34
2018-10-12T03:49:07.068Z,11.30
2018-10-12T03:51:40.994Z,11.28
2018-10-12T03:54:14.871Z,11.29
2018-10-12T03:56:48.687Z,11.25
2018-10-12T03:59:22.555Z,11.27
2018-10-12T04:01:56.434Z,11.30
2018-10-12T04:04:30.286Z,11.31
2018-10-12T04:07:04.101Z,11.30
2018-10-12T04:09:37.974Z,11.28
2018-10-12T04:12:11.795Z,11.27
2018-10-12T04:14:45.654Z,11.23
2018-10-12T04:17:19.462Z,11.18
2018-10-12T04:19:53.332Z,11.15
2018-10-12T04:22:27.193Z,11.13
2018-10-12T04:25:01.105Z,11.13
2018-10-12T04:27:34.937Z,11.11
2018-10-12T04:30:08.837Z,11.07
2018-10-12T04:32:42.671Z,11.05
2018-10-12T04:35:16.524Z,11.00
2018-10-12T04:37:50.384Z,11.01
2018-10-12T04:41:29.992Z,10.99
2018-10-12T04:44:04.248Z,10.92
2018-10-12T04:46:40.931Z,10.93
2018-10-12T04:49:16.449Z,10.92
2018-10-12T04:51:55.096Z,10.90
2018-10-12T04:54:29.441Z,10.90
2018-10-12T04:57:03.299Z,10.93
2018-10-12T04:59:37.115Z,10.93
2018-10-12T05:02:11.191Z,10.94
2018-10-12T05:04:45.130Z,10.94
2018-10-12T05:07:19.157Z,10.95
2018-10-12T05:09:53.038Z,10.93
2018-10-12T05:12:35.540Z,10.91
2018-10-12T05:15:09.345Z,10.91
2018-10-12T05:17:43.302Z,10.90
2018-10-12T05:20:17.324Z,10.88
2018-10-12T05:22:51.187Z,10.87
2018-10-12T05:25:25.028Z,10.89
2018-10-12T05:27:58.935Z,10.91
2018-10-12T05:30:32.748Z,10.90
2018-10-12T05:33:06.787Z,10.91
2018-10-12T05:35:40.632Z,10.88
2018-10-12T05:38:14.688Z,10.84
2018-10-12T05:40:48.570Z,10.83
2018-10-12T05:43:22.686Z,10.85
2018-10-12T05:45:56.442Z,10.84
2018-10-12T05:48:41.264Z,10.83
2018-10-12T05:51:16.181Z,10.87
2018-10-12T05:53:50.308Z,10.86
2018-10-12T05:56:29.092Z,10.84
2018-10-12T05:59:03.262Z,10.88
2018-10-12T06:01:37.125Z,10.85
2018-10-12T06:04:11.102Z,10.89
2018-10-12T06:06:44.911Z,10.91
2018-10-12T06:09:18.877Z,10.92
2018-10-12T06:11:52.727Z,10.95
2018-10-12T06:14:26.574Z,11.01
2018-10-12T06:17:00.429Z,11.05
2018-10-12T06:19:34.371Z,11.10
2018-10-12T06:22:08.339Z,11.09
2018-10-12T06:24:42.187Z,11.11
2018-10-12T06:27:15.998Z,11.15
2018-10-12T06:29:49.896Z,11.17
2018-10-12T06:32:23.721Z,11.19
2018-10-12T06:34:57.561Z,11.18
2018-10-12T06:37:31.388Z,11.22
2018-10-12T06:40:05.600Z,11.31
2018-10-12T06:42:39.394Z,11.39
2018-10-12T06:45:13.287Z,11.45
2018-10-12T06:47:47.125Z,11.49
2018-10-12T06:50:20.981Z,11.57
2018-10-12T06:52:54.824Z,11.62
2018-10-12T06:55:28.667Z,11.72
2018-10-12T06:58:02.498Z,11.83
2018-10-12T07:00:36.376Z,11.91
2018-10-12T07:03:10.357Z,12.05
2018-10-12T07:05:44.497Z,12.16
2018-10-12T07:08:18.360Z,12.28
2018-10-12T07:10:52.300Z,12.40
2018-10-12T07:13:26.154Z,12.53
2018-10-12T07:16:00.036Z,12.65
2018-10-12T07:18:33.920Z,12.77
2018-10-12T07:21:07.758Z,12.92
2018-10-12T07:23:41.582Z,13.08
2018-10-12T07:26:16.206Z,13.26
2018-10-12T07:28:50.516Z,13.45
2018-10-12T07:31:24.423Z,13.61
2018-10-12T07:33:58.268Z,13.81
2018-10-12T07:36:32.226Z,13.97
2018-10-12T07:39:08.263Z,14.13
2018-10-12T07:41:42.135Z,14.26
2018-10-12T07:44:15.953Z,14.41
2018-10-12T07:46:49.898Z,14.54
2018-10-12T07:49:23.856Z,14.66
2018-10-12T07:51:57.743Z,14.77
2018-10-12T07:54:31.544Z,14.89
2018-10-12T07:57:11.812Z,15.04
2018-10-12T07:59:46.146Z,15.23
2018-10-12T08:02:20.003Z,15.43
2018-10-12T08:04:53.835Z,15.62
2018-10-12T08:07:27.750Z,15.79
2018-10-12T08:10:01.724Z,16.05
2018-10-12T08:12:35.629Z,16.30
2018-10-12T08:15:09.476Z,16.56
2018-10-12T08:17:43.383Z,16.67
2018-10-12T08:20:17.441Z,16.84
2018-10-12T08:22:51.330Z,17.08
2018-10-12T08:25:25.153Z,17.33
2018-10-12T08:27:59.060Z,17.57
2018-10-12T08:30:32.990Z,17.74
2018-10-12T08:33:06.971Z,18.00
2018-10-12T08:35:40.764Z,18.25
2018-10-12T08:38:14.651Z,18.52
2018-10-12T08:40:48.548Z,18.84
2018-10-12T08:43:22.573Z,19.12
2018-10-12T08:45:56.411Z,19.43
2018-10-12T08:48:32.079Z,19.64
2018-10-12T08:51:05.917Z,19.79
2018-10-12T08:53:39.800Z,20.18
2018-10-12T08:56:13.864Z,20.38
2018-10-12T08:58:47.697Z,20.55
2018-10-12T09:01:21.574Z,20.72
2018-10-12T09:03:55.521Z,21.05
2018-10-12T09:06:29.380Z,21.36
2018-10-12T09:09:03.658Z,21.53
2018-10-12T09:11:37.850Z,21.56
2018-10-12T09:14:11.696Z,21.77
2018-10-12T09:16:45.529Z,21.95
2018-10-12T09:19:19.444Z,22.08
2018-10-12T09:21:53.294Z,22.42
2018-10-12T09:24:27.152Z,22.67
2018-10-12T09:27:00.976Z,22.87
2018-10-12T09:29:34.834Z,22.95
2018-10-12T09:32:08.672Z,23.00
2018-10-12T09:34:42.604Z,23.22
2018-10-12T09:37:16.437Z,23.21
2018-10-12T09:39:50.320Z,23.20
2018-10-12T09:42:24.504Z,23.14
2018-10-12T09:44:58.351Z,23.17
2018-10-12T09:47:32.184Z,23.05
2018-10-12T09:50:06.172Z,23.25
2018-10-12T09:52:39.998Z,23.26
2018-10-12T09:55:13.843Z,23.36
2018-10-12T09:57:47.680Z,23.43
2018-10-12T10:00:26.625Z,23.53
2018-10-12T10:03:05.514Z,23.71
2018-10-12T10:05:39.367Z,23.75
2018-10-12T10:08:13.343Z,23.83
2018-10-12T10:10:47.060Z,23.86
2018-10-12T10:13:20.907Z,23.91
2018-10-12T10:15:54.777Z,23.95
2018-10-12T10:18:28.621Z,23.95
2018-10-12T10:21:02.540Z,23.98
2018-10-12T10:23:36.478Z,24.11
2018-10-12T10:26:10.347Z,24.13
2018-10-12T10:28:44.182Z,24.21
2018-10-12T10:31:18.117Z,24.38
2018-10-12T10:33:51.939Z,24.55
2018-10-12T10:36:26.445Z,24.65
2018-10-12T10:39:00.061Z,24.73
2018-10-12T10:41:33.892Z,24.70
2018-10-12T10:44:07.890Z,24.72
2018-10-12T10:46:41.798Z,24.64
2018-10-12T10:49:15.593Z,24.65
2018-10-12T10:51:49.506Z,24.64
2018-10-12T10:54:23.468Z,24.70
2018-10-12T10:57:02.311Z,24.66
2018-10-12T10:59:37.009Z,24.78
2018-10-12T11:02:10.886Z,24.75
2018-10-12T11:04:44.773Z,24.69
2018-10-12T11:07:18.649Z,24.70
2018-10-12T11:09:52.476Z,24.84
2018-10-12T11:12:26.493Z,24.90
2018-10-12T11:15:00.200Z,24.99
2018-10-12T11:17:34.144Z,25.12
2018-10-12T11:20:08.290Z,25.18
2018-10-12T11:22:42.261Z,25.33
2018-10-12T11:25:16.066Z,25.48
2018-10-12T11:27:50.116Z,25.55
2018-10-12T11:30:24.044Z,25.69
2018-10-12T11:32:58.005Z,25.81
2018-10-12T11:35:31.892Z,25.89
2018-10-12T11:38:05.757Z,26.00
2018-10-12T11:40:39.875Z,26.30
2018-10-12T11:43:24.888Z,26.50
2018-10-12T11:45:59.409Z,26.44
2018-10-12T11:48:33.426Z,26.52
2018-10-12T11:51:07.284Z,26.65
2018-10-12T11:53:41.133Z,26.65
2018-10-12T11:56:14.950Z,26.82
2018-10-12T11:58:50.083Z,27.00
2018-10-12T12:01:24.441Z,27.05
2018-10-12T12:03:58.374Z,27.25
2018-10-12T12:06:32.245Z,27.73
2018-10-12T12:09:07.150Z,27.89
2018-10-12T12:11:41.064Z,28.14
2018-10-12T12:14:14.962Z,28.05
2018-10-12T12:16:48.766Z,27.92
2018-10-12T12:19:22.671Z,27.57
2018-10-12T12:21:56.462Z,27.51
2018-10-12T12:24:30.327Z,27.42
2018-10-12T12:27:04.193Z,27.27
2018-10-12T12:29:38.091Z,27.23
2018-10-12T12:32:11.913Z,27.17
2018-10-12T12:34:45.977Z,27.07
2018-10-12T12:37:19.725Z,26.86
2018-10-12T12:39:53.731Z,26.76
2018-10-12T12:42:27.537Z,26.77
2018-10-12T12:45:01.468Z,26.72
2018-10-12T12:47:35.678Z,26.67
2018-10-12T12:50:09.532Z,26.33
2018-10-12T12:52:43.439Z,26.36
2018-10-12T12:55:17.395Z,26.41
2018-10-12T12:57:51.220Z,26.44
2018-10-12T13:00:25.201Z,26.36
2018-10-12T13:02:59.004Z,26.44
2018-10-12T13:05:32.848Z,26.28
2018-10-12T13:08:06.694Z,26.19
2018-10-12T13:10:40.688Z,26.21
2018-10-12T13:13:14.532Z,26.15
2018-10-12T13:15:48.544Z,25.98
2018-10-12T13:18:22.340Z,26.05
2018-10-12T13:20:56.176Z,26.07
2018-10-12T13:23:30.006Z,26.02
2018-10-12T13:26:04.040Z,25.95
2018-10-12T13:28:37.766Z,25.94
2018-10-12T13:31:11.615Z,25.97
2018-10-12T13:33:45.448Z,25.94
2018-10-12T13:36:19.297Z,26.02
2018-10-12T13:38:53.161Z,26.08
2018-10-12T13:41:26.993Z,26.05
2018-10-12T13:44:00.809Z,26.05
2018-10-12T13:46:34.839Z,26.03
2018-10-12T13:49:08.750Z,25.95
2018-10-12T13:51:42.558Z,25.97
2018-10-12T13:54:16.425Z,25.92
2018-10-12T13:56:54.339Z,25.92
2018-10-12T13:59:29.979Z,25.83
2018-10-12T14:02:03.822Z,25.73
2018-10-12T14:04:37.657Z,25.77
2018-10-12T14:07:11.602Z,25.72
2018-10-12T14:09:45.405Z,25.69
2018-10-12T14:12:19.266Z,25.70
2018-10-12T14:14:53.093Z,25.65
2018-10-12T14:17:26.947Z,25.59
2018-10-12T14:20:00.784Z,25.57
2018-10-12T14:22:34.644Z,25.47
2018-10-12T14:25:08.573Z,25.55
2018-10-12T14:27:42.531Z,25.55
2018-10-12T14:30:16.375Z,25.53
2018-10-12T14:32:50.295Z,25.46
2018-10-12T14:35:24.125Z,25.51
2018-10-12T14:37:58.088Z,25.39
2018-10-12T14:40:31.984Z,25.28
2018-10-12T14:43:05.973Z,25.28
2018-10-12T14:45:39.907Z,25.27
2018-10-12T14:48:13.848Z,25.27
2018-10-12T14:50:47.663Z,25.35
2018-10-12T14:53:21.569Z,25.33
2018-10-12T14:55:55.411Z,25.31
2018-10-12T14:58:29.522Z,25.29
2018-10-12T15:01:03.398Z,25.22
2018-10-12T15:03:37.263Z,25.26
2018-10-12T15:06:11.070Z,25.20
2018-10-12T15:08:59.624Z,25.25
2018-10-12T15:11:33.441Z,25.26
2018-10-12T15:14:07.468Z,25.13
2018-10-12T15:16:41.309Z,25.12
2018-10-12T15:19:15.144Z,25.07
2018-10-12T15:21:49.062Z,24.99
2018-10-12T15:24:22.971Z,24.94
2018-10-12T15:26:56.793Z,24.93
2018-10-12T15:29:30.745Z,24.89
2018-10-12T15:32:04.556Z,24.88
2018-10-12T15:34:38.433Z,24.82
2018-10-12T15:37:12.303Z,24.80
2018-10-12T15:39:46.148Z,24.72
2018-10-12T15:42:19.990Z,24.64
2018-10-12T15:44:53.836Z,24.63
2018-10-12T15:47:27.835Z,24.60
2018-10-12T15:50:01.803Z,24.59
2018-10-12T15:52:35.608Z,24.58
2018-10-12T15:55:09.631Z,24.54
2018-10-12T15:57:43.467Z,24.47
2018-10-12T16:00:17.321Z,24.42
2018-10-12T16:02:51.221Z,24.36
2018-10-12T16:05:25.080Z,24.31
2018-10-12T16:07:58.934Z,24.28
2018-10-12T16:10:33.008Z,24.22
2018-10-12T16:13:07.133Z,24.16
2018-10-12T16:15:41.007Z,24.04
2018-10-12T16:18:14.890Z,23.98
2018-10-12T16:20:48.826Z,23.93
2018-10-12T16:23:22.643Z,23.85
2018-10-12T16:26:31.268Z,23.74
2018-10-12T16:29:05.124Z,23.66
2018-10-12T16:31:39.000Z,23.56
2018-10-12T16:34:12.798Z,23.48
2018-10-12T16:36:46.784Z,23.36
2018-10-12T16:39:20.524Z,23.25
2018-10-12T16:41:54.372Z,23.13
2018-10-12T16:44:28.221Z,23.02
2018-10-12T16:47:02.099Z,22.90
2018-10-12T16:49:36.228Z,22.81
2018-10-12T16:52:10.063Z,22.72
2018-10-12T16:54:43.931Z,22.61
2018-10-12T16:57:21.896Z,22.49
2018-10-12T16:59:55.682Z,22.37
2018-10-12T17:02:29.543Z,22.26
2018-10-12T17:05:03.360Z,22.15
2018-10-12T17:07:37.196Z,22.07
2018-10-12T17:10:11.046Z,21.98
2018-10-12T17:12:44.938Z,21.88
2018-10-12T17:15:18.782Z,21.79
2018-10-12T17:17:52.624Z,21.67
2018-10-12T17:20:26.601Z,21.59
2018-10-12T17:23:00.428Z,21.53
2018-10-12T17:25:34.281Z,21.44
2018-10-12T17:28:08.954Z,21.35
2018-10-12T17:30:42.788Z,21.25
2018-10-12T17:33:16.621Z,21.09
2018-10-12T17:35:50.412Z,20.97
2018-10-12T17:38:24.287Z,20.87
2018-10-12T17:40:58.248Z,20.78
2018-10-12T17:43:32.070Z,20.67
2018-10-12T17:46:06.600Z,20.59
2018-10-12T17:48:40.454Z,20.48
2018-10-12T17:51:14.669Z,20.43
2018-10-12T17:53:48.549Z,20.37
2018-10-12T17:56:22.406Z,20.31
2018-10-12T17:58:56.235Z,20.28
2018-10-12T18:01:30.042Z,20.23
2018-10-12T18:04:04.009Z,20.16
2018-10-12T18:06:37.810Z,20.08
2018-10-12T18:09:11.664Z,20.00
2018-10-12T18:11:45.493Z,19.87
2018-10-12T18:14:19.499Z,19.79
2018-10-12T18:16:53.248Z,19.70
2018-10-12T18:19:27.204Z,19.59
2018-10-12T18:22:01.023Z,19.47
2018-10-12T18:24:34.843Z,19.38
2018-10-12T18:27:09.065Z,19.33
2018-10-12T18:29:42.996Z,19.26
2018-10-12T18:32:16.802Z,19.20
2018-10-12T18:34:50.641Z,19.11
2018-10-12T18:37:24.515Z,19.07
2018-10-12T18:39:58.590Z,19.03
2018-10-12T18:42:32.433Z,18.99
2018-10-12T18:45:06.562Z,18.96
2018-10-12T18:47:40.427Z,18.95
2018-10-12T18:50:14.355Z,18.92
2018-10-12T18:52:48.179Z,18.89
2018-10-12T18:55:22.057Z,18.81
2018-10-12T18:57:55.889Z,18.74
2018-10-12T19:00:29.759Z,18.66
2018-10-12T19:03:03.640Z,18.57
2018-10-12T19:05:38.525Z,18.48
2018-10-12T19:08:12.467Z,18.40
2018-10-12T19:10:47.395Z,18.33
2018-10-12T19:13:21.407Z,18.30
2018-10-12T19:15:55.287Z,18.25
2018-10-12T19:18:29.090Z,18.21
2018-10-12T19:21:02.950Z,18.12
2018-10-12T19:23:37.964Z,18.10
2018-10-12T19:26:13.009Z,18.04
2018-10-12T19:28:47.651Z,17.99
2018-10-12T19:31:21.566Z,17.90
2018-10-12T19:33:55.542Z,17.82
2018-10-12T19:36:29.390Z,17.77
2018-10-12T19:39:03.404Z,17.71
2018-10-12T19:41:37.253Z,17.69
2018-10-12T19:44:11.169Z,17.62
2018-10-12T19:46:45.004Z,17.58
2018-10-12T19:49:18.969Z,17.55
2018-10-12T19:51:52.856Z,17.53
2018-10-12T19:54:26.645Z,17.48
2018-10-12T19:57:00.643Z,17.41
2018-10-12T19:59:35.091Z,17.33
2018-10-12T20:02:10.496Z,17.29
2018-10-12T20:04:44.289Z,17.23
2018-10-12T20:07:19.050Z,17.17
2018-10-12T20:09:54.198Z,17.12
2018-10-12T20:12:28.063Z,17.05
2018-10-12T20:15:01.921Z,17.00
2018-10-12T20:17:35.814Z,16.94
2018-10-12T20:20:09.510Z,17.12
2018-10-12T20:22:43.451Z,17.20
2018-10-12T20:25:17.321Z,17.18
2018-10-12T20:27:51.330Z,17.17
2018-10-12T20:30:25.164Z,17.14
2018-10-12T20:32:59.096Z,17.12
2018-10-12T20:35:33.040Z,17.11
2018-10-12T20:38:07.431Z,17.07
2018-10-12T20:40:41.385Z,17.02
2018-10-12T20:43:15.374Z,16.99
2018-10-12T20:45:49.436Z,16.96
2018-10-12T20:48:23.702Z,16.91
2018-10-12T20:50:58.851Z,16.88
2018-10-12T20:53:33.029Z,16.86
2018-10-12T20:56:07.253Z,16.83
2018-10-12T20:58:41.481Z,16.81
2018-10-12T21:01:15.456Z,16.75
2018-10-12T21:03:49.515Z,16.72
2018-10-12T21:06:23.936Z,16.67
2018-10-12T21:08:58.396Z,16.66
2018-10-12T21:11:32.326Z,16.61
2018-10-12T21:14:06.469Z,16.55
2018-10-12T21:16:40.821Z,16.52
2018-10-12T21:19:14.815Z,16.51
2018-10-12T21:21:48.726Z,16.48
2018-10-12T21:24:22.884Z,16.43
2018-10-12T21:26:56.989Z,16.38
2018-10-12T21:29:30.892Z,16.37
2018-10-12T21:32:04.729Z,16.33
2018-10-12T21:34:38.627Z,16.32
2018-10-12T21:37:12.551Z,16.31
2018-10-12T21:39:46.426Z,16.30
2018-10-12T21:42:20.487Z,16.30
2018-10-12T21:44:54.352Z,16.31
2018-10-12T21:47:28.242Z,16.29
2018-10-12T21:50:02.339Z,16.23
2018-10-12T21:52:36.165Z,16.19
2018-10-12T21:55:10.193Z,16.13
2018-10-12T21:57:44.018Z,16.07
2018-10-12T22:00:18.538Z,16.00
2018-10-12T22:02:52.398Z,15.96
2018-10-12T22:05:26.909Z,15.95
2018-10-12T22:08:02.179Z,15.96
2018-10-12T22:10:36.573Z,15.92
2018-10-12T22:13:10.816Z,15.89
2018-10-12T22:15:44.911Z,15.85
2018-10-12T22:18:19.192Z,15.85
2018-10-12T22:20:53.246Z,15.87
2018-10-12T22:23:28.448Z,15.87
2018-10-12T22:26:02.868Z,15.86
2018-10-12T22:28:37.371Z,15.83
2018-10-12T22:31:11.664Z,15.83
2018-10-12T22:33:45.478Z,15.77
2018-10-12T22:36:19.733Z,15.73
2018-10-12T22:38:54.188Z,15.72
2018-10-12T22:41:28.220Z,15.64
2018-10-12T22:44:02.120Z,15.57
2018-10-12T22:46:36.180Z,15.57
2018-10-12T22:49:10.021Z,15.55
2018-10-12T22:51:44.017Z,15.54
2018-10-12T22:54:18.327Z,15.54
2018-10-12T22:56:52.804Z,15.53
2018-10-12T22:59:26.819Z,15.56
2018-10-12T23:02:01.800Z,15.53
2018-10-12T23:04:36.623Z,15.53
2018-10-12T23:07:11.241Z,15.52
2018-10-12T23:09:45.173Z,15.51
2018-10-12T23:12:19.132Z,15.53
2018-10-12T23:14:53.052Z,15.53
2018-10-12T23:17:27.284Z,15.56
2018-10-12T23:20:01.107Z,15.56
2018-10-12T23:22:34.947Z,15.55
2018-10-12T23:25:08.856Z,15.57
2018-10-12T23:27:43.015Z,15.57
2018-10-12T23:30:16.875Z,15.54
2018-10-12T23:32:50.831Z,15.51
2018-10-12T23:35:24.634Z,15.52
2018-10-12T23:37:58.648Z,15.51
2018-10-12T23:40:32.669Z,15.50
2018-10-12T23:43:07.131Z,15.51
2018-10-12T23:45:40.961Z,15.49
2018-10-12T23:48:16.033Z,15.43
2018-10-12T23:50:50.028Z,15.38
2018-10-12T23:53:23.885Z,15.34
2018-10-12T23:55:57.826Z,15.34
2018-10-12T23:58:31.919Z,15.30
